sensor_id;sensor_type;location;lat;lon;timestamp;pressure;altitude;pressure_sealevel;temperature;humidity
51299;BME280;37382;45.192;9.790;2024-02-28T00:01:20;100810.59;;;9.86;100.00
51299;BME280;37382;45.192;9.790;2024-02-28T00:03:48;100813.91;;;9.81;100.00
51299;BME280;37382;45.192;9.790;2024-02-28T00:06:16;100822.97;;;9.88;100.00
51299;BME280;37382;45.192;9.790;2024-02-28T00:08:46;100828.50;;;9.80;100.00
51299;BME280;37382;45.192;9.790;2024-02-28T00:11:13;100830.84;;;9.83;100.00
51299;BME280;37382;45.192;9.790;2024-02-28T00:13:40;100833.50;;;9.76;100.00
51299;BME280;37382;45.192;9.790;2024-02-28T00:16:08;100829.66;;;9.71;100.00
51299;BME280;37382;45.192;9.790;2024-02-28T00:18:36;100827.56;;;9.73;100.00
51299;BME280;37382;45.192;9.790;2024-02-28T00:21:03;100826.94;;;9.71;100.00
51299;BME280;37382;45.192;9.790;2024-02-28T00:23:31;100848.59;;;9.79;100.00
51299;BME280;37382;45.192;9.790;2024-02-28T00:26:03;100849.78;;;9.91;100.00
51299;BME280;37382;45.192;9.790;2024-02-28T00:28:30;100860.28;;;9.79;100.00
51299;BME280;37382;45.192;9.790;2024-02-28T00:30:58;100861.59;;;9.84;100.00
51299;BME280;37382;45.192;9.790;2024-02-28T00:33:25;100858.00;;;9.83;100.00
51299;BME280;37382;45.192;9.790;2024-02-28T00:35:53;100868.97;;;9.90;100.00
51299;BME280;37382;45.192;9.790;2024-02-28T00:38:20;100865.03;;;9.92;100.00
51299;BME280;37382;45.192;9.790;2024-02-28T00:40:48;100872.72;;;9.89;100.00
51299;BME280;37382;45.192;9.790;2024-02-28T00:43:15;100870.84;;;9.89;100.00
51299;BME280;37382;45.192;9.790;2024-02-28T00:45:43;100877.72;;;9.85;100.00
51299;BME280;37382;45.192;9.790;2024-02-28T00:48:11;100884.53;;;9.81;100.00
51299;BME280;37382;45.192;9.790;2024-02-28T00:50:39;100890.16;;;9.79;100.00
51299;BME280;37382;45.192;9.790;2024-02-28T00:53:06;100897.19;;;9.89;100.00
51299;BME280;37382;45.192;9.790;2024-02-28T00:55:33;100891.09;;;9.87;100.00
51299;BME280;37382;45.192;9.790;2024-02-28T00:58:01;100897.56;;;9.86;100.00
51299;BME280;37382;45.192;9.790;2024-02-28T01:00:29;100904.84;;;10.00;100.00
51299;BME280;37382;45.192;9.790;2024-02-28T01:02:56;100900.53;;;10.06;100.00
51299;BME280;37382;45.192;9.790;2024-02-28T01:05:24;100905.53;;;9.87;100.00
51299;BME280;37382;45.192;9.790;2024-02-28T01:07:51;100896.09;;;10.05;100.00
51299;BME280;37382;45.192;9.790;2024-02-28T01:10:18;100900.25;;;10.01;100.00
51299;BME280;37382;45.192;9.790;2024-02-28T01:12:46;100897.53;;;10.01;100.00
51299;BME280;37382;45.192;9.790;2024-02-28T01:15:13;100895.66;;;10.01;100.00
51299;BME280;37382;45.192;9.790;2024-02-28T01:17:40;100891.72;;;10.04;100.00
51299;BME280;37382;45.192;9.790;2024-02-28T01:20:08;100896.59;;;9.93;100.00
51299;BME280;37382;45.192;9.790;2024-02-28T01:22:36;100904.44;;;10.03;100.00
51299;BME280;37382;45.192;9.790;2024-02-28T01:25:03;100897.63;;;9.92;100.00
51299;BME280;37382;45.192;9.790;2024-02-28T01:27:32;100893.50;;;9.96;100.00
51299;BME280;37382;45.192;9.790;2024-02-28T01:29:59;100895.41;;;9.96;100.00
51299;BME280;37382;45.192;9.790;2024-02-28T01:32:28;100894.34;;;9.97;100.00
51299;BME280;37382;45.192;9.790;2024-02-28T01:34:56;100883.56;;;10.04;100.00
51299;BME280;37382;45.192;9.790;2024-02-28T01:37:24;100886.00;;;9.98;100.00
51299;BME280;37382;45.192;9.790;2024-02-28T01:39:51;100881.13;;;10.09;100.00
51299;BME280;37382;45.192;9.790;2024-02-28T01:42:19;100894.53;;;9.95;100.00
51299;BME280;37382;45.192;9.790;2024-02-28T01:44:48;100892.69;;;9.96;100.00
51299;BME280;37382;45.192;9.790;2024-02-28T01:47:18;100880.50;;;9.92;100.00
51299;BME280;37382;45.192;9.790;2024-02-28T01:49:46;100889.97;;;9.96;100.00
51299;BME280;37382;45.192;9.790;2024-02-28T01:52:15;100888.72;;;9.98;100.00
51299;BME280;37382;45.192;9.790;2024-02-28T01:54:42;100893.97;;;10.00;100.00
51299;BME280;37382;45.192;9.790;2024-02-28T01:57:10;100899.53;;;9.92;100.00
51299;BME280;37382;45.192;9.790;2024-02-28T01:59:38;100900.28;;;9.86;100.00
51299;BME280;37382;45.192;9.790;2024-02-28T02:02:06;100905.72;;;9.86;100.00
51299;BME280;37382;45.192;9.790;2024-02-28T02:04:33;100907.66;;;9.92;100.00
51299;BME280;37382;45.192;9.790;2024-02-28T02:07:01;100895.22;;;9.97;100.00
51299;BME280;37382;45.192;9.790;2024-02-28T02:09:28;100903.38;;;9.97;100.00
51299;BME280;37382;45.192;9.790;2024-02-28T02:11:56;100910.75;;;10.04;100.00
51299;BME280;37382;45.192;9.790;2024-02-28T02:14:23;100907.88;;;9.90;100.00
51299;BME280;37382;45.192;9.790;2024-02-28T02:16:51;100914.31;;;9.89;100.00
51299;BME280;37382;45.192;9.790;2024-02-28T02:19:18;100919.75;;;9.89;100.00
51299;BME280;37382;45.192;9.790;2024-02-28T02:21:52;100926.97;;;9.97;100.00
51299;BME280;37382;45.192;9.790;2024-02-28T02:24:21;100925.75;;;10.00;100.00
51299;BME280;37382;45.192;9.790;2024-02-28T02:26:48;100925.75;;;9.85;100.00
51299;BME280;37382;45.192;9.790;2024-02-28T02:29:18;100928.19;;;9.94;100.00
51299;BME280;37382;45.192;9.790;2024-02-28T02:31:45;100922.47;;;9.89;100.00
51299;BME280;37382;45.192;9.790;2024-02-28T02:34:13;100927.34;;;9.94;100.00
51299;BME280;37382;45.192;9.790;2024-02-28T02:36:40;100928.84;;;9.96;100.00
51299;BME280;37382;45.192;9.790;2024-02-28T02:39:08;100932.41;;;9.97;100.00
51299;BME280;37382;45.192;9.790;2024-02-28T02:41:35;100934.91;;;9.98;100.00
51299;BME280;37382;45.192;9.790;2024-02-28T02:44:03;100937.19;;;9.80;100.00
51299;BME280;37382;45.192;9.790;2024-02-28T02:46:30;100934.47;;;9.95;100.00
51299;BME280;37382;45.192;9.790;2024-02-28T02:48:57;100937.19;;;9.95;100.00
51299;BME280;37382;45.192;9.790;2024-02-28T02:51:25;100931.19;;;10.00;100.00
51299;BME280;37382;45.192;9.790;2024-02-28T02:53:53;100939.53;;;9.98;100.00
51299;BME280;37382;45.192;9.790;2024-02-28T02:56:21;100944.97;;;9.98;100.00
51299;BME280;37382;45.192;9.790;2024-02-28T02:58:48;100945.16;;;9.96;100.00
51299;BME280;37382;45.192;9.790;2024-02-28T03:01:15;100944.03;;;9.91;100.00
51299;BME280;37382;45.192;9.790;2024-02-28T03:03:43;100953.22;;;9.90;100.00
51299;BME280;37382;45.192;9.790;2024-02-28T03:06:10;100949.44;;;9.91;100.00
51299;BME280;37382;45.192;9.790;2024-02-28T03:08:38;100946.66;;;9.99;100.00
51299;BME280;37382;45.192;9.790;2024-02-28T03:11:06;100951.91;;;10.01;100.00
51299;BME280;37382;45.192;9.790;2024-02-28T03:13:36;100953.00;;;10.06;100.00
51299;BME280;37382;45.192;9.790;2024-02-28T03:16:04;100963.50;;;10.09;100.00
51299;BME280;37382;45.192;9.790;2024-02-28T03:18:31;100959.69;;;10.04;100.00
51299;BME280;37382;45.192;9.790;2024-02-28T03:20:59;100960.97;;;10.08;100.00
51299;BME280;37382;45.192;9.790;2024-02-28T03:23:26;100966.41;;;10.08;100.00
51299;BME280;37382;45.192;9.790;2024-02-28T03:25:54;100968.47;;;10.06;100.00
51299;BME280;37382;45.192;9.790;2024-02-28T03:28:21;100970.25;;;10.13;100.00
51299;BME280;37382;45.192;9.790;2024-02-28T03:30:49;100972.41;;;10.18;100.00
51299;BME280;37382;45.192;9.790;2024-02-28T03:33:16;100976.81;;;10.19;100.00
51299;BME280;37382;45.192;9.790;2024-02-28T03:35:44;100974.72;;;10.21;100.00
51299;BME280;37382;45.192;9.790;2024-02-28T03:38:11;100977.19;;;10.16;100.00
51299;BME280;37382;45.192;9.790;2024-02-28T03:40:38;100982.72;;;10.08;100.00
51299;BME280;37382;45.192;9.790;2024-02-28T03:43:06;100984.03;;;10.12;100.00
51299;BME280;37382;45.192;9.790;2024-02-28T03:45:37;100988.31;;;10.21;100.00
51299;BME280;37382;45.192;9.790;2024-02-28T03:48:06;100991.53;;;10.25;100.00
51299;BME280;37382;45.192;9.790;2024-02-28T03:50:33;100988.44;;;10.28;100.00
51299;BME280;37382;45.192;9.790;2024-02-28T03:53:01;100988.63;;;10.26;100.00
51299;BME280;37382;45.192;9.790;2024-02-28T03:55:28;100995.09;;;10.25;100.00
51299;BME280;37382;45.192;9.790;2024-02-28T03:57:55;100997.22;;;10.30;100.00
51299;BME280;37382;45.192;9.790;2024-02-28T04:00:23;100998.63;;;10.26;100.00
51299;BME280;37382;45.192;9.790;2024-02-28T04:02:50;100998.19;;;10.22;100.00
51299;BME280;37382;45.192;9.790;2024-02-28T04:05:17;101009.88;;;10.23;100.00
51299;BME280;37382;45.192;9.790;2024-02-28T04:07:45;101002.41;;;10.25;100.00
51299;BME280;37382;45.192;9.790;2024-02-28T04:10:12;101004.63;;;10.21;100.00
51299;BME280;37382;45.192;9.790;2024-02-28T04:12:42;101019.56;;;10.25;100.00
51299;BME280;37382;45.192;9.790;2024-02-28T04:15:13;101012.78;;;10.21;100.00
51299;BME280;37382;45.192;9.790;2024-02-28T04:17:42;101015.63;;;10.28;100.00
51299;BME280;37382;45.192;9.790;2024-02-28T04:20:13;101012.34;;;10.32;100.00
51299;BME280;37382;45.192;9.790;2024-02-28T04:22:40;101016.25;;;10.30;100.00
51299;BME280;37382;45.192;9.790;2024-02-28T04:25:09;101022.19;;;10.33;100.00
51299;BME280;37382;45.192;9.790;2024-02-28T04:27:37;101029.03;;;10.29;100.00
51299;BME280;37382;45.192;9.790;2024-02-28T04:30:05;101027.97;;;10.30;100.00
51299;BME280;37382;45.192;9.790;2024-02-28T04:32:33;101031.75;;;10.29;100.00
51299;BME280;37382;45.192;9.790;2024-02-28T04:35:00;101033.78;;;10.27;100.00
51299;BME280;37382;45.192;9.790;2024-02-28T04:37:27;101029.31;;;10.35;100.00
51299;BME280;37382;45.192;9.790;2024-02-28T04:39:55;101035.50;;;10.13;100.00
51299;BME280;37382;45.192;9.790;2024-02-28T04:42:22;101034.84;;;10.11;100.00
51299;BME280;37382;45.192;9.790;2024-02-28T04:44:50;101042.63;;;10.14;100.00
51299;BME280;37382;45.192;9.790;2024-02-28T04:47:17;101037.00;;;10.16;100.00
51299;BME280;37382;45.192;9.790;2024-02-28T04:49:52;101042.63;;;10.14;100.00
51299;BME280;37382;45.192;9.790;2024-02-28T04:52:20;101048.50;;;10.03;100.00
51299;BME280;37382;45.192;9.790;2024-02-28T04:54:53;101049.19;;;10.20;100.00
51299;BME280;37382;45.192;9.790;2024-02-28T04:57:21;101053.50;;;10.14;100.00
51299;BME280;37382;45.192;9.790;2024-02-28T04:59:48;101063.50;;;9.84;100.00
51299;BME280;37382;45.192;9.790;2024-02-28T05:02:16;101064.34;;;9.85;100.00
51299;BME280;37382;45.192;9.790;2024-02-28T05:04:44;101063.78;;;10.04;100.00
51299;BME280;37382;45.192;9.790;2024-02-28T05:07:12;101064.38;;;10.14;100.00
51299;BME280;37382;45.192;9.790;2024-02-28T05:09:40;101060.41;;;9.87;100.00
51299;BME280;37382;45.192;9.790;2024-02-28T05:12:07;101074.19;;;9.86;100.00
51299;BME280;37382;45.192;9.790;2024-02-28T05:14:35;101062.53;;;9.77;100.00
51299;BME280;37382;45.192;9.790;2024-02-28T05:17:03;101074.50;;;9.68;100.00
51299;BME280;37382;45.192;9.790;2024-02-28T05:19:31;101073.91;;;9.57;100.00
51299;BME280;37382;45.192;9.790;2024-02-28T05:21:58;101071.44;;;9.71;100.00
51299;BME280;37382;45.192;9.790;2024-02-28T05:24:26;101086.34;;;9.75;100.00
51299;BME280;37382;45.192;9.790;2024-02-28T05:26:53;101077.31;;;9.59;100.00
51299;BME280;37382;45.192;9.790;2024-02-28T05:29:20;101077.72;;;9.48;100.00
51299;BME280;37382;45.192;9.790;2024-02-28T05:31:48;101090.66;;;9.46;100.00
51299;BME280;37382;45.192;9.790;2024-02-28T05:34:15;101083.72;;;9.43;100.00
51299;BME280;37382;45.192;9.790;2024-02-28T05:36:43;101086.38;;;9.52;100.00
51299;BME280;37382;45.192;9.790;2024-02-28T05:39:11;101087.75;;;9.48;100.00
51299;BME280;37382;45.192;9.790;2024-02-28T05:41:38;101091.50;;;9.47;100.00
51299;BME280;37382;45.192;9.790;2024-02-28T05:44:06;101098.53;;;9.56;100.00
51299;BME280;37382;45.192;9.790;2024-02-28T05:46:33;101104.53;;;9.51;100.00
51299;BME280;37382;45.192;9.790;2024-02-28T05:49:01;101113.41;;;9.45;100.00
51299;BME280;37382;45.192;9.790;2024-02-28T05:51:28;101111.56;;;9.46;100.00
51299;BME280;37382;45.192;9.790;2024-02-28T05:53:56;101117.03;;;9.37;100.00
51299;BME280;37382;45.192;9.790;2024-02-28T05:56:23;101116.44;;;9.50;100.00
51299;BME280;37382;45.192;9.790;2024-02-28T05:58:50;101122.16;;;9.55;100.00
51299;BME280;37382;45.192;9.790;2024-02-28T06:01:18;101133.44;;;9.44;100.00
51299;BME280;37382;45.192;9.790;2024-02-28T06:03:47;101135.81;;;9.47;100.00
51299;BME280;37382;45.192;9.790;2024-02-28T06:06:15;101137.47;;;9.48;100.00
51299;BME280;37382;45.192;9.790;2024-02-28T06:08:43;101148.84;;;9.52;100.00
51299;BME280;37382;45.192;9.790;2024-02-28T06:11:11;101142.78;;;9.41;100.00
51299;BME280;37382;45.192;9.790;2024-02-28T06:13:40;101150.31;;;9.31;100.00
51299;BME280;37382;45.192;9.790;2024-02-28T06:16:13;101148.03;;;9.20;100.00
51299;BME280;37382;45.192;9.790;2024-02-28T06:18:41;101160.44;;;9.14;100.00
51299;BME280;37382;45.192;9.790;2024-02-28T06:21:08;101165.91;;;9.37;100.00
51299;BME280;37382;45.192;9.790;2024-02-28T06:23:36;101166.97;;;9.28;100.00
51299;BME280;37382;45.192;9.790;2024-02-28T06:26:03;101169.78;;;9.12;100.00
51299;BME280;37382;45.192;9.790;2024-02-28T06:28:31;101161.50;;;9.05;100.00
51299;BME280;37382;45.192;9.790;2024-02-28T06:30:59;101177.78;;;9.05;100.00
51299;BME280;37382;45.192;9.790;2024-02-28T06:33:27;101177.78;;;9.05;100.00
51299;BME280;37382;45.192;9.790;2024-02-28T06:35:54;101182.88;;;9.08;100.00
51299;BME280;37382;45.192;9.790;2024-02-28T06:38:22;101182.38;;;9.04;100.00
51299;BME280;37382;45.192;9.790;2024-02-28T06:40:49;101188.25;;;9.16;100.00
51299;BME280;37382;45.192;9.790;2024-02-28T06:43:16;101194.03;;;9.44;100.00
51299;BME280;37382;45.192;9.790;2024-02-28T06:45:44;101193.44;;;9.57;100.00
51299;BME280;37382;45.192;9.790;2024-02-28T06:48:11;101197.31;;;9.63;100.00
51299;BME280;37382;45.192;9.790;2024-02-28T06:50:39;101202.13;;;9.76;100.00
51299;BME280;37382;45.192;9.790;2024-02-28T06:53:06;101204.50;;;9.79;100.00
51299;BME280;37382;45.192;9.790;2024-02-28T06:55:34;101195.75;;;9.69;100.00
51299;BME280;37382;45.192;9.790;2024-02-28T06:58:01;101196.69;;;9.76;100.00
51299;BME280;37382;45.192;9.790;2024-02-28T07:00:28;101207.69;;;9.83;100.00
51299;BME280;37382;45.192;9.790;2024-02-28T07:02:56;101210.53;;;9.89;100.00
51299;BME280;37382;45.192;9.790;2024-02-28T07:05:24;101214.28;;;9.88;100.00
51299;BME280;37382;45.192;9.790;2024-02-28T07:07:51;101219.66;;;9.73;100.00
51299;BME280;37382;45.192;9.790;2024-02-28T07:10:19;101221.56;;;9.88;100.00
51299;BME280;37382;45.192;9.790;2024-02-28T07:12:46;101222.25;;;9.90;100.00
51299;BME280;37382;45.192;9.790;2024-02-28T07:15:14;101227.00;;;9.88;100.00
51299;BME280;37382;45.192;9.790;2024-02-28T07:17:41;101226.22;;;10.02;100.00
51299;BME280;37382;45.192;9.790;2024-02-28T07:20:09;101231.84;;;10.01;100.00
51299;BME280;37382;45.192;9.790;2024-02-28T07:22:37;101234.56;;;10.01;100.00
51299;BME280;37382;45.192;9.790;2024-02-28T07:25:05;101233.16;;;10.05;100.00
51299;BME280;37382;45.192;9.790;2024-02-28T07:27:35;101231.13;;;9.84;100.00
51299;BME280;37382;45.192;9.790;2024-02-28T07:30:02;101235.69;;;9.83;100.00
51299;BME280;37382;45.192;9.790;2024-02-28T07:32:33;101243.69;;;9.85;100.00
51299;BME280;37382;45.192;9.790;2024-02-28T07:35:02;101241.84;;;9.77;100.00
51299;BME280;37382;45.192;9.790;2024-02-28T07:37:30;101247.28;;;9.77;100.00
51299;BME280;37382;45.192;9.790;2024-02-28T07:39:57;101242.84;;;10.07;100.00
51299;BME280;37382;45.192;9.790;2024-02-28T07:42:25;101246.75;;;10.05;100.00
51299;BME280;37382;45.192;9.790;2024-02-28T07:44:52;101245.34;;;10.32;100.00
51299;BME280;37382;45.192;9.790;2024-02-28T07:47:23;101251.47;;;10.11;100.00
51299;BME280;37382;45.192;9.790;2024-02-28T07:49:51;101257.88;;;10.18;100.00
51299;BME280;37382;45.192;9.790;2024-02-28T07:52:19;101258.91;;;10.17;100.00
51299;BME280;37382;45.192;9.790;2024-02-28T07:54:47;101267.13;;;10.09;100.00
51299;BME280;37382;45.192;9.790;2024-02-28T07:57:14;101270.19;;;10.06;100.00
51299;BME280;37382;45.192;9.790;2024-02-28T07:59:42;101265.00;;;10.19;100.00
51299;BME280;37382;45.192;9.790;2024-02-28T08:02:10;101267.72;;;10.42;100.00
51299;BME280;37382;45.192;9.790;2024-02-28T08:04:41;101266.53;;;10.45;100.00
51299;BME280;37382;45.192;9.790;2024-02-28T08:07:08;101274.22;;;10.56;100.00
51299;BME280;37382;45.192;9.790;2024-02-28T08:09:35;101270.53;;;10.49;100.00
51299;BME280;37382;45.192;9.790;2024-02-28T08:12:03;101273.94;;;10.51;100.00
51299;BME280;37382;45.192;9.790;2024-02-28T08:14:30;101280.72;;;10.55;100.00
51299;BME280;37382;45.192;9.790;2024-02-28T08:16:58;101274.59;;;10.53;100.00
51299;BME280;37382;45.192;9.790;2024-02-28T08:19:25;101282.97;;;10.66;100.00
51299;BME280;37382;45.192;9.790;2024-02-28T08:21:53;101289.75;;;10.85;100.00
51299;BME280;37382;45.192;9.790;2024-02-28T08:24:21;101292.75;;;10.91;100.00
51299;BME280;37382;45.192;9.790;2024-02-28T08:26:48;101293.34;;;11.01;100.00
51299;BME280;37382;45.192;9.790;2024-02-28T08:29:16;101300.75;;;10.92;100.00
51299;BME280;37382;45.192;9.790;2024-02-28T08:31:43;101299.44;;;11.03;100.00
51299;BME280;37382;45.192;9.790;2024-02-28T08:34:11;101300.75;;;10.92;100.00
51299;BME280;37382;45.192;9.790;2024-02-28T08:36:39;101298.31;;;11.12;100.00
51299;BME280;37382;45.192;9.790;2024-02-28T08:39:07;101309.75;;;11.08;100.00
51299;BME280;37382;45.192;9.790;2024-02-28T08:41:36;101311.72;;;11.14;100.00
51299;BME280;37382;45.192;9.790;2024-02-28T08:44:04;101314.34;;;11.22;100.00
51299;BME280;37382;45.192;9.790;2024-02-28T08:46:31;101314.47;;;11.14;100.00
51299;BME280;37382;45.192;9.790;2024-02-28T08:48:59;101315.28;;;11.14;100.00
51299;BME280;37382;45.192;9.790;2024-02-28T08:51:26;101331.53;;;11.08;100.00
51299;BME280;37382;45.192;9.790;2024-02-28T08:53:54;101327.22;;;10.98;100.00
51299;BME280;37382;45.192;9.790;2024-02-28T08:56:22;101335.28;;;11.07;100.00
51299;BME280;37382;45.192;9.790;2024-02-28T08:58:50;101335.31;;;10.92;100.00
51299;BME280;37382;45.192;9.790;2024-02-28T09:01:17;101330.91;;;11.06;100.00
51299;BME280;37382;45.192;9.790;2024-02-28T09:03:45;101331.84;;;11.28;100.00
51299;BME280;37382;45.192;9.790;2024-02-28T09:06:12;101333.03;;;11.40;100.00
51299;BME280;37382;45.192;9.790;2024-02-28T09:08:40;101339.53;;;11.24;100.00
51299;BME280;37382;45.192;9.790;2024-02-28T09:11:08;101340.94;;;11.50;100.00
51299;BME280;37382;45.192;9.790;2024-02-28T09:13:35;101338.56;;;11.62;100.00
51299;BME280;37382;45.192;9.790;2024-02-28T09:16:03;101334.34;;;11.59;100.00
51299;BME280;37382;45.192;9.790;2024-02-28T09:18:31;101333.53;;;11.95;100.00
51299;BME280;37382;45.192;9.790;2024-02-28T09:20:58;101333.63;;;12.02;100.00
51299;BME280;37382;45.192;9.790;2024-02-28T09:23:25;101335.72;;;11.85;100.00
51299;BME280;37382;45.192;9.790;2024-02-28T09:25:53;101337.41;;;12.01;100.00
51299;BME280;37382;45.192;9.790;2024-02-28T09:28:21;101335.53;;;12.23;100.00
51299;BME280;37382;45.192;9.790;2024-02-28T09:30:48;101337.50;;;12.07;100.00
51299;BME280;37382;45.192;9.790;2024-02-28T09:33:20;101334.22;;;11.97;100.00
51299;BME280;37382;45.192;9.790;2024-02-28T09:35:48;101341.00;;;11.86;100.00
51299;BME280;37382;45.192;9.790;2024-02-28T09:38:15;101340.44;;;11.76;100.00
51299;BME280;37382;45.192;9.790;2024-02-28T09:40:46;101340.50;;;11.83;100.00
51299;BME280;37382;45.192;9.790;2024-02-28T09:43:28;101351.59;;;11.96;100.00
51299;BME280;37382;45.192;9.790;2024-02-28T09:45:59;101339.69;;;12.19;100.00
51299;BME280;37382;45.192;9.790;2024-02-28T09:48:28;101345.88;;;11.91;100.00
51299;BME280;37382;45.192;9.790;2024-02-28T09:50:57;101351.16;;;11.92;100.00
51299;BME280;37382;45.192;9.790;2024-02-28T09:53:26;101354.22;;;11.89;100.00
51299;BME280;37382;45.192;9.790;2024-02-28T09:55:53;101355.00;;;11.83;100.00
51299;BME280;37382;45.192;9.790;2024-02-28T09:58:20;101353.69;;;11.94;100.00
51299;BME280;37382;45.192;9.790;2024-02-28T10:00:48;101357.31;;;12.01;100.00
51299;BME280;37382;45.192;9.790;2024-02-28T10:03:18;101358.81;;;12.04;100.00
51299;BME280;37382;45.192;9.790;2024-02-28T10:05:48;101358.09;;;11.95;100.00
51299;BME280;37382;45.192;9.790;2024-02-28T10:08:15;101360.25;;;11.85;100.00
51299;BME280;37382;45.192;9.790;2024-02-28T10:10:47;101362.13;;;11.99;100.00
51299;BME280;37382;45.192;9.790;2024-02-28T10:13:16;101366.56;;;12.22;100.00
51299;BME280;37382;45.192;9.790;2024-02-28T10:15:44;101364.38;;;12.32;100.00
51299;BME280;37382;45.192;9.790;2024-02-28T10:18:11;101367.53;;;12.14;100.00
51299;BME280;37382;45.192;9.790;2024-02-28T10:20:39;101367.75;;;12.13;100.00
51299;BME280;37382;45.192;9.790;2024-02-28T10:23:06;101367.66;;;12.42;100.00
51299;BME280;37382;45.192;9.790;2024-02-28T10:25:43;101368.53;;;12.50;100.00
51299;BME280;37382;45.192;9.790;2024-02-28T10:28:23;101374.13;;;12.63;100.00
51299;BME280;37382;45.192;9.790;2024-02-28T10:30:51;101370.88;;;11.95;100.00
51299;BME280;37382;45.192;9.790;2024-02-28T10:33:21;101367.88;;;11.74;100.00
51299;BME280;37382;45.192;9.790;2024-02-28T10:35:50;101369.47;;;11.84;100.00
51299;BME280;37382;45.192;9.790;2024-02-28T10:38:21;101372.00;;;11.85;100.00
51299;BME280;37382;45.192;9.790;2024-02-28T10:40:50;101368.81;;;11.82;100.00
51299;BME280;37382;45.192;9.790;2024-02-28T10:43:19;101376.28;;;12.24;100.00
51299;BME280;37382;45.192;9.790;2024-02-28T10:45:47;101372.25;;;12.42;100.00
51299;BME280;37382;45.192;9.790;2024-02-28T10:48:35;101382.56;;;12.25;100.00
51299;BME280;37382;45.192;9.790;2024-02-28T10:51:04;101388.25;;;12.08;100.00
51299;BME280;37382;45.192;9.790;2024-02-28T10:53:42;101385.41;;;12.17;100.00
51299;BME280;37382;45.192;9.790;2024-02-28T10:56:11;101388.72;;;12.12;100.00
51299;BME280;37382;45.192;9.790;2024-02-28T10:58:50;101400.38;;;11.91;100.00
51299;BME280;37382;45.192;9.790;2024-02-28T11:01:18;101406.22;;;11.73;100.00
51299;BME280;37382;45.192;9.790;2024-02-28T11:03:49;101394.13;;;11.75;100.00
51299;BME280;37382;45.192;9.790;2024-02-28T11:06:18;101397.09;;;11.81;100.00
51299;BME280;37382;45.192;9.790;2024-02-28T11:08:49;101394.13;;;11.46;100.00
51299;BME280;37382;45.192;9.790;2024-02-28T11:11:21;101398.72;;;11.30;100.00
51299;BME280;37382;45.192;9.790;2024-02-28T11:13:56;101395.88;;;11.24;100.00
51299;BME280;37382;45.192;9.790;2024-02-28T11:16:33;101401.78;;;11.12;100.00
51299;BME280;37382;45.192;9.790;2024-02-28T11:19:01;101405.72;;;11.10;100.00
51299;BME280;37382;45.192;9.790;2024-02-28T11:21:34;101409.13;;;11.12;100.00
51299;BME280;37382;45.192;9.790;2024-02-28T11:24:02;101410.69;;;11.06;100.00
51299;BME280;37382;45.192;9.790;2024-02-28T11:26:30;101409.22;;;11.18;100.00
51299;BME280;37382;45.192;9.790;2024-02-28T11:28:58;101407.63;;;11.24;100.00
51299;BME280;37382;45.192;9.790;2024-02-28T11:31:25;101407.47;;;11.41;100.00
51299;BME280;37382;45.192;9.790;2024-02-28T11:33:53;101401.53;;;11.67;100.00
51299;BME280;37382;45.192;9.790;2024-02-28T11:36:21;101405.28;;;11.81;100.00
51299;BME280;37382;45.192;9.790;2024-02-28T11:38:50;101403.78;;;11.63;100.00
51299;BME280;37382;45.192;9.790;2024-02-28T11:41:27;101404.44;;;11.80;100.00
51299;BME280;37382;45.192;9.790;2024-02-28T11:43:57;101406.81;;;11.68;100.00
51299;BME280;37382;45.192;9.790;2024-02-28T11:46:25;101397.78;;;11.68;100.00
51299;BME280;37382;45.192;9.790;2024-02-28T11:48:53;101387.13;;;11.88;100.00
51299;BME280;37382;45.192;9.790;2024-02-28T11:51:23;101395.69;;;11.85;100.00
51299;BME280;37382;45.192;9.790;2024-02-28T11:53:50;101386.28;;;12.02;100.00
51299;BME280;37382;45.192;9.790;2024-02-28T11:56:18;101384.50;;;11.80;100.00
51299;BME280;37382;45.192;9.790;2024-02-28T11:58:52;101385.38;;;11.65;100.00
51299;BME280;37382;45.192;9.790;2024-02-28T12:04:03;101376.22;;;12.03;100.00
51299;BME280;37382;45.192;9.790;2024-02-28T12:06:35;101380.94;;;11.64;100.00
51299;BME280;37382;45.192;9.790;2024-02-28T12:09:08;101379.25;;;11.63;100.00
51299;BME280;37382;45.192;9.790;2024-02-28T12:11:37;101361.69;;;11.96;100.00
51299;BME280;37382;45.192;9.790;2024-02-28T12:14:08;101355.81;;;12.35;100.00
51299;BME280;37382;45.192;9.790;2024-02-28T12:16:37;101356.41;;;12.31;100.00
51299;BME280;37382;45.192;9.790;2024-02-28T12:19:12;101354.00;;;12.42;100.00
51299;BME280;37382;45.192;9.790;2024-02-28T12:21:40;101351.19;;;12.36;100.00
51299;BME280;37382;45.192;9.790;2024-02-28T12:24:09;101353.47;;;12.54;100.00
51299;BME280;37382;45.192;9.790;2024-02-28T12:26:39;101354.88;;;12.28;100.00
51299;BME280;37382;45.192;9.790;2024-02-28T12:29:07;101354.06;;;12.27;100.00
51299;BME280;37382;45.192;9.790;2024-02-28T12:31:36;101359.75;;;12.11;100.00
51299;BME280;37382;45.192;9.790;2024-02-28T12:34:04;101363.63;;;11.87;100.00
51299;BME280;37382;45.192;9.790;2024-02-28T12:36:36;101366.47;;;11.79;100.00
51299;BME280;37382;45.192;9.790;2024-02-28T12:39:03;101368.34;;;11.93;100.00
51299;BME280;37382;45.192;9.790;2024-02-28T12:41:33;101374.28;;;11.82;100.00
51299;BME280;37382;45.192;9.790;2024-02-28T12:44:00;101369.00;;;11.80;100.00
51299;BME280;37382;45.192;9.790;2024-02-28T12:46:28;101369.84;;;11.81;100.00
51299;BME280;37382;45.192;9.790;2024-02-28T12:48:55;101364.78;;;11.78;100.00
51299;BME280;37382;45.192;9.790;2024-02-28T12:51:43;101373.91;;;11.85;100.00